Time;durP1;ratioP1;P1;durP2;ratioP2;P2;SDS_P1;SDS_P2;PMS_P1;PMS_P2;Temp;Humidity;BMP_temperature;BMP_pressure;BME280_temperature;BME280_humidity;BME280_pressure;Samples;Min_cycle;Max_cycle;Signal;HPM_P1;HPM_P2
2022/10/02 00:01:34;;;;;;;9.70;3.70;;;12.10;99.90;;;;;;5116493;28;20280;-73
2022/10/02 00:04:02;;;;;;;11.27;4.00;;;12.10;99.90;;;;;;5116217;28;20256;-73
2022/10/02 00:06:36;;;;;;;13.70;4.30;;;12.00;99.90;;;;;;5114849;28;20191;-73
2022/10/02 00:09:04;;;;;;;14.67;4.50;;;12.10;99.90;;;;;;5115853;28;20593;-73
2022/10/02 00:11:42;;;;;;;9.33;4.17;;;12.10;99.90;;;;;;5115825;28;20196;-73
2022/10/02 00:14:15;;;;;;;11.90;3.87;;;12.10;99.90;;;;;;5116072;28;20282;-73
2022/10/02 00:16:45;;;;;;;10.60;3.87;;;12.20;99.90;;;;;;5115998;28;20200;-74
2022/10/02 00:19:16;;;;;;;9.27;4.00;;;12.20;99.90;;;;;;5115828;28;20290;-73
2022/10/02 00:21:56;;;;;;;15.17;4.93;;;12.20;99.90;;;;;;5115513;28;20289;-73
2022/10/02 00:24:31;;;;;;;14.00;4.27;;;12.20;99.90;;;;;;5115634;28;20622;-74
2022/10/02 00:27:03;;;;;;;8.43;3.80;;;12.20;99.90;;;;;;5115820;28;20251;-74
2022/10/02 00:29:41;;;;;;;7.87;3.83;;;12.30;99.90;;;;;;5115514;28;20199;-73
2022/10/02 00:32:19;;;;;;;11.70;4.00;;;12.30;99.90;;;;;;5115482;28;20570;-73
2022/10/02 00:35:19;;;;;;;10.07;3.93;;;12.30;99.90;;;;;;5115384;28;20203;-74
2022/10/02 00:37:56;;;;;;;13.50;4.23;;;12.30;99.90;;;;;;5115535;27;20239;-74
2022/10/02 00:40:41;;;;;;;17.57;4.57;;;12.40;99.90;;;;;;5115356;28;20195;-74
2022/10/02 00:43:21;;;;;;;11.17;3.93;;;12.40;99.90;;;;;;5115561;28;20183;-74
2022/10/02 00:46:09;;;;;;;10.40;4.53;;;12.30;99.90;;;;;;5115493;28;20257;-73
2022/10/02 00:48:50;;;;;;;11.20;4.10;;;12.30;99.90;;;;;;5115102;28;20724;-74
2022/10/02 00:51:33;;;;;;;9.60;3.63;;;12.20;99.90;;;;;;5115231;28;20240;-74
2022/10/02 00:54:13;;;;;;;9.57;3.90;;;12.20;99.90;;;;;;5115235;28;20199;-73
2022/10/02 00:56:48;;;;;;;9.70;3.97;;;12.30;99.90;;;;;;5114897;28;20581;-73
2022/10/02 00:59:37;;;;;;;10.30;4.00;;;12.30;99.90;;;;;;5115073;28;20199;-73
2022/10/02 01:02:10;;;;;;;9.43;3.57;;;12.30;99.90;;;;;;5115073;28;20627;-73
2022/10/02 01:04:40;;;;;;;8.00;3.80;;;12.30;99.90;;;;;;5114984;28;20199;-74
2022/10/02 01:07:09;;;;;;;13.03;3.97;;;12.30;99.90;;;;;;5114820;28;20203;-73
2022/10/02 01:09:37;;;;;;;8.70;4.10;;;12.30;99.90;;;;;;5114812;28;20207;-74
2022/10/02 01:12:04;;;;;;;10.97;4.50;;;12.30;99.90;;;;;;5114491;28;20199;-74
2022/10/02 01:14:33;;;;;;;14.37;4.13;;;12.30;99.90;;;;;;5114618;28;20199;-74
2022/10/02 01:17:01;;;;;;;9.57;4.07;;;12.30;99.90;;;;;;5114459;28;20286;-74
2022/10/02 01:19:36;;;;;;;11.77;4.13;;;12.30;99.90;;;;;;5114846;28;20244;-73
2022/10/02 01:22:11;;;;;;;11.17;3.80;;;12.40;99.90;;;;;;5114445;28;20247;-74
2022/10/02 01:24:47;;;;;;;9.63;3.80;;;12.40;99.90;;;;;;5114505;28;20195;-74
2022/10/02 01:27:14;;;;;;;11.17;4.20;;;12.40;99.90;;;;;;5114628;28;20206;-73
2022/10/02 01:29:41;;;;;;;11.83;4.10;;;12.40;99.90;;;;;;5114550;28;20196;-73
2022/10/02 01:32:09;;;;;;;13.13;4.27;;;12.30;99.90;;;;;;5114473;28;20289;-73
2022/10/02 01:34:37;;;;;;;8.33;4.30;;;12.30;99.90;;;;;;5114443;28;20616;-73
2022/10/02 01:37:04;;;;;;;11.33;4.23;;;12.30;99.90;;;;;;5114678;28;20199;-73
2022/10/02 01:39:31;;;;;;;15.43;4.07;;;12.20;99.90;;;;;;5114198;28;20195;-73
2022/10/02 01:42:00;;;;;;;10.53;4.47;;;12.20;99.90;;;;;;5114056;28;20623;-74
2022/10/02 01:44:27;;;;;;;11.63;4.00;;;12.20;99.90;;;;;;5114041;28;20673;-72
2022/10/02 01:47:00;;;;;;;10.20;4.20;;;12.20;99.90;;;;;;5114052;28;20204;-71
2022/10/02 01:49:45;;;;;;;8.83;4.30;;;12.10;99.90;;;;;;5113960;28;20198;-71
2022/10/02 01:52:33;;;;;;;9.27;4.27;;;12.10;99.90;;;;;;5114133;28;20238;-71
2022/10/02 01:55:14;;;;;;;10.40;4.33;;;12.00;99.90;;;;;;5113863;28;20200;-71
2022/10/02 01:57:55;;;;;;;11.33;4.97;;;12.00;99.90;;;;;;5113810;28;20195;-71
2022/10/02 02:00:25;;;;;;;12.53;5.07;;;12.00;99.90;;;;;;5114213;28;20221;-71
2022/10/02 02:02:57;;;;;;;10.40;5.33;;;11.90;99.90;;;;;;5113944;28;20266;-71
2022/10/02 02:05:37;;;;;;;8.23;4.57;;;11.90;99.90;;;;;;5113900;27;20204;-71
2022/10/02 02:08:11;;;;;;;15.83;5.00;;;11.80;99.90;;;;;;5113582;28;20585;-71
2022/10/02 02:10:53;;;;;;;9.97;5.10;;;11.80;99.90;;;;;;5113589;28;20195;-71
2022/10/02 02:13:26;;;;;;;11.50;5.07;;;11.80;99.90;;;;;;5113712;28;20210;-71
2022/10/02 02:15:59;;;;;;;16.63;5.83;;;11.80;99.90;;;;;;5113584;28;20199;-71
2022/10/02 02:18:32;;;;;;;12.50;5.50;;;11.80;99.90;;;;;;5113498;28;20202;-71
2022/10/02 02:21:05;;;;;;;11.07;5.50;;;11.70;99.90;;;;;;5113399;28;20195;-71
2022/10/02 02:23:36;;;;;;;11.13;5.23;;;11.70;99.90;;;;;;5113425;28;20231;-70
2022/10/02 02:26:08;;;;;;;11.73;5.53;;;11.80;99.90;;;;;;5113460;28;20244;-71
2022/10/02 02:28:40;;;;;;;10.83;4.83;;;11.80;99.90;;;;;;5112908;28;20199;-71
2022/10/02 02:31:09;;;;;;;12.47;4.90;;;11.80;99.90;;;;;;5113564;28;20659;-71
2022/10/02 02:33:40;;;;;;;8.87;4.90;;;11.70;99.90;;;;;;5113544;28;20210;-72
2022/10/02 02:36:12;;;;;;;9.77;5.40;;;11.70;99.90;;;;;;5113465;28;20210;-72
2022/10/02 02:38:43;;;;;;;10.40;5.47;;;11.70;99.90;;;;;;5113350;28;20614;-71
2022/10/02 02:41:17;;;;;;;9.97;5.20;;;11.70;99.90;;;;;;5113482;28;20656;-72
2022/10/02 02:43:50;;;;;;;9.93;5.57;;;11.70;99.90;;;;;;5113223;28;20203;-71
2022/10/02 02:46:23;;;;;;;12.03;5.23;;;11.80;99.90;;;;;;5113350;28;20253;-71
2022/10/02 02:48:54;;;;;;;14.33;5.30;;;11.70;99.90;;;;;;5113396;28;20228;-72
2022/10/02 02:51:26;;;;;;;10.47;5.57;;;11.80;99.90;;;;;;5113235;28;20195;-71
2022/10/02 02:54:00;;;;;;;11.93;5.43;;;11.70;99.90;;;;;;5113140;28;20200;-71
2022/10/02 02:56:29;;;;;;;8.17;4.47;;;11.70;99.90;;;;;;5113020;28;20215;-71
2022/10/02 02:59:00;;;;;;;7.90;4.50;;;11.70;99.90;;;;;;5113125;28;20195;-71
2022/10/02 03:01:27;;;;;;;11.43;4.83;;;11.70;99.90;;;;;;5113091;28;20203;-70
2022/10/02 03:03:54;;;;;;;9.90;4.03;;;11.70;99.90;;;;;;5113033;28;20199;-70
2022/10/02 03:06:32;;;;;;;9.97;4.80;;;11.70;99.90;;;;;;5112946;28;20225;-70
2022/10/02 03:09:00;;;;;;;12.97;4.50;;;11.70;99.90;;;;;;5113221;28;20198;-70
2022/10/02 03:11:38;;;;;;;10.13;4.47;;;11.60;99.90;;;;;;5113087;28;20225;-70
2022/10/02 03:14:17;;;;;;;6.47;3.63;;;11.60;99.90;;;;;;5112975;28;20215;-70
2022/10/02 03:16:55;;;;;;;7.40;4.00;;;11.60;99.90;;;;;;5112823;28;20203;-70
2022/10/02 03:19:37;;;;;;;11.23;3.80;;;11.60;99.90;;;;;;5112777;28;20198;-70
2022/10/02 03:22:10;;;;;;;8.80;4.30;;;11.50;99.90;;;;;;5112495;28;20230;-70
2022/10/02 03:24:46;;;;;;;8.00;4.20;;;11.60;99.90;;;;;;5112885;28;20290;-70
2022/10/02 03:27:19;;;;;;;7.77;3.93;;;11.60;99.90;;;;;;5112757;28;20210;-70
2022/10/02 03:29:53;;;;;;;11.23;3.90;;;11.50;99.90;;;;;;5112978;28;20196;-70
2022/10/02 03:32:21;;;;;;;7.07;3.50;;;11.50;99.90;;;;;;5112884;28;20261;-70
2022/10/02 03:34:49;;;;;;;10.93;4.33;;;11.50;99.90;;;;;;5112788;28;20195;-70
2022/10/02 03:37:17;;;;;;;7.40;3.67;;;11.60;99.90;;;;;;5112717;28;20289;-70
2022/10/02 03:39:44;;;;;;;7.13;3.50;;;11.50;99.90;;;;;;5112849;28;20730;-70
2022/10/02 03:42:12;;;;;;;9.63;3.70;;;11.50;99.90;;;;;;5116322;28;20224;-70
2022/10/02 03:44:39;;;;;;;9.80;3.50;;;11.50;99.90;;;;;;5116323;28;20241;-70
2022/10/02 03:47:07;;;;;;;6.97;3.83;;;11.50;99.90;;;;;;5116464;28;20192;-70
2022/10/02 03:49:34;;;;;;;8.13;3.83;;;11.50;99.90;;;;;;5116378;28;20241;-70
2022/10/02 03:52:01;;;;;;;9.77;3.60;;;11.50;99.90;;;;;;5116265;28;20686;-70
2022/10/02 03:54:34;;;;;;;6.87;3.73;;;11.60;99.90;;;;;;5116179;28;20206;-70
2022/10/02 03:57:04;;;;;;;6.90;3.70;;;11.50;99.90;;;;;;5116617;28;20195;-70
2022/10/02 03:59:41;;;;;;;9.00;3.97;;;11.50;99.90;;;;;;5116325;28;20203;-70
2022/10/02 04:02:19;;;;;;;12.63;4.23;;;11.50;99.90;;;;;;5116131;28;20223;-70
2022/10/02 04:04:50;;;;;;;7.80;3.53;;;11.50;99.90;;;;;;5116387;28;20195;-70
2022/10/02 04:07:22;;;;;;;9.47;4.30;;;11.50;99.90;;;;;;5116029;28;20208;-70
2022/10/02 04:09:55;;;;;;;11.67;4.10;;;11.60;99.90;;;;;;5115945;28;20643;-70
2022/10/02 04:12:29;;;;;;;11.47;4.33;;;11.50;99.90;;;;;;5116033;28;20199;-70
2022/10/02 04:15:02;;;;;;;8.30;4.50;;;11.60;99.90;;;;;;5116177;28;20196;-70
2022/10/02 04:17:36;;;;;;;11.80;5.10;;;11.60;99.90;;;;;;5115757;28;20199;-70
2022/10/02 04:20:07;;;;;;;9.60;4.43;;;11.60;99.90;;;;;;5116040;28;20229;-70
2022/10/02 04:22:38;;;;;;;9.93;4.57;;;11.60;99.90;;;;;;5115582;28;20240;-71
2022/10/02 04:25:10;;;;;;;9.10;4.47;;;11.60;99.90;;;;;;5115718;28;20191;-71
2022/10/02 04:27:40;;;;;;;12.27;5.00;;;11.60;99.90;;;;;;5115658;28;20204;-71
2022/10/02 04:30:10;;;;;;;12.57;5.43;;;11.60;99.90;;;;;;5115474;28;20248;-70
2022/10/02 04:32:38;;;;;;;10.00;4.93;;;11.60;99.90;;;;;;5115739;28;20272;-70
2022/10/02 04:35:12;;;;;;;10.07;4.90;;;11.60;99.90;;;;;;5115623;28;20227;-71
2022/10/02 04:37:54;;;;;;;13.03;5.17;;;11.60;99.90;;;;;;5115466;28;20191;-71
2022/10/02 04:40:36;;;;;;;12.77;4.43;;;11.60;99.90;;;;;;5115555;28;20205;-72
2022/10/02 04:43:17;;;;;;;15.07;5.57;;;11.60;99.90;;;;;;5115428;28;20219;-71
2022/10/02 04:45:58;;;;;;;13.20;5.13;;;11.60;99.90;;;;;;5115265;28;20249;-71
2022/10/02 04:48:46;;;;;;;10.87;4.47;;;11.60;99.90;;;;;;5115237;28;20286;-71
2022/10/02 04:51:26;;;;;;;12.13;4.90;;;11.60;99.90;;;;;;5115158;28;20249;-71
2022/10/02 04:54:15;;;;;;;13.83;5.23;;;11.60;99.90;;;;;;5115251;28;20196;-71
2022/10/02 04:56:56;;;;;;;11.27;4.63;;;11.60;99.90;;;;;;5115121;28;20195;-72
2022/10/02 04:59:39;;;;;;;11.07;4.37;;;11.60;99.90;;;;;;5115031;28;20245;-71
2022/10/02 05:02:22;;;;;;;15.30;4.33;;;11.60;99.90;;;;;;5115078;28;20207;-71
2022/10/02 05:05:07;;;;;;;11.23;5.10;;;11.60;99.90;;;;;;5114994;28;20200;-71
2022/10/02 05:07:45;;;;;;;14.10;4.83;;;11.60;99.90;;;;;;5114777;28;20199;-71
2022/10/02 05:10:32;;;;;;;12.70;4.70;;;11.70;99.90;;;;;;5115008;28;20200;-71
2022/10/02 05:13:07;;;;;;;11.37;4.63;;;11.70;99.90;;;;;;5114866;28;20207;-72
2022/10/02 05:15:50;;;;;;;16.37;4.73;;;11.70;99.90;;;;;;5114778;28;20563;-71
2022/10/02 05:18:45;;;;;;;12.57;5.13;;;11.70;99.90;;;;;;5114735;28;20654;-71
2022/10/02 05:21:25;;;;;;;12.10;4.63;;;11.80;99.90;;;;;;5114794;28;20191;-71
2022/10/02 05:24:04;;;;;;;9.40;4.70;;;11.70;99.90;;;;;;5114323;28;20247;-71
2022/10/02 05:27:00;;;;;;;13.90;4.77;;;11.80;99.90;;;;;;5114427;28;20195;-71
2022/10/02 05:29:43;;;;;;;22.37;10.43;;;11.80;99.90;;;;;;5114631;28;20253;-71
2022/10/02 05:32:30;;;;;;;15.10;8.17;;;11.80;99.90;;;;;;5114475;28;20278;-71
2022/10/02 05:35:11;;;;;;;13.70;5.00;;;11.80;99.90;;;;;;5114655;28;20195;-71
2022/10/02 05:37:49;;;;;;;14.73;5.33;;;11.80;99.90;;;;;;5114378;28;20195;-71
2022/10/02 05:40:20;;;;;;;17.70;5.47;;;11.80;99.90;;;;;;5114155;28;20700;-71
2022/10/02 05:42:57;;;;;;;14.57;5.73;;;11.80;99.90;;;;;;5114057;28;20690;-71
2022/10/02 05:45:27;;;;;;;16.60;6.77;;;11.80;99.90;;;;;;5114405;28;20248;-71
2022/10/02 05:48:03;;;;;;;10.13;5.43;;;11.80;99.90;;;;;;5114370;28;20195;-72
2022/10/02 05:50:34;;;;;;;13.77;5.50;;;11.80;99.90;;;;;;5114190;28;20285;-71
2022/10/02 05:53:07;;;;;;;16.67;7.13;;;11.80;99.90;;;;;;5114042;28;20199;-70
2022/10/02 05:55:38;;;;;;;13.73;5.43;;;11.90;99.90;;;;;;5114149;28;20249;-71
2022/10/02 05:58:11;;;;;;;12.73;5.87;;;11.80;99.90;;;;;;5114053;28;20199;-71
2022/10/02 06:00:43;;;;;;;17.00;5.70;;;11.80;99.90;;;;;;5114001;28;20195;-71
2022/10/02 06:03:16;;;;;;;13.30;5.30;;;11.80;99.90;;;;;;5113352;28;20257;-71
2022/10/02 06:05:53;;;;;;;15.63;6.00;;;11.80;99.90;;;;;;5113416;28;20229;-71
2022/10/02 06:08:29;;;;;;;13.97;4.83;;;11.80;99.90;;;;;;5113963;28;20240;-70
2022/10/02 06:11:00;;;;;;;15.07;4.97;;;11.80;99.90;;;;;;5113709;28;20555;-69
2022/10/02 06:13:34;;;;;;;12.57;6.57;;;11.80;99.90;;;;;;5113565;28;20195;-69
2022/10/02 06:16:09;;;;;;;13.43;5.13;;;11.80;99.90;;;;;;5113648;28;20206;-69
2022/10/02 06:18:39;;;;;;;12.93;6.20;;;11.80;99.90;;;;;;5113768;28;20252;-70
2022/10/02 06:21:10;;;;;;;12.83;4.90;;;11.80;99.90;;;;;;5113604;28;20196;-69
2022/10/02 06:23:43;;;;;;;15.13;5.73;;;11.90;99.90;;;;;;5113335;28;20251;-70
2022/10/02 06:26:15;;;;;;;13.17;5.20;;;11.90;99.90;;;;;;5113586;28;20593;-69
2022/10/02 06:28:48;;;;;;;13.67;5.10;;;11.90;99.90;;;;;;5113382;28;20659;-70
2022/10/02 06:31:21;;;;;;;11.20;5.70;;;11.90;99.90;;;;;;5113487;28;20200;-69
2022/10/02 06:33:51;;;;;;;15.80;7.00;;;12.00;99.90;;;;;;5113344;28;20659;-70
2022/10/02 06:36:45;;;;;;;18.10;10.20;;;12.00;99.90;;;;;;5113504;28;20195;-69
2022/10/02 06:39:41;;;;;;;18.80;10.03;;;12.00;99.90;;;;;;5102801;28;20199;-70
2022/10/02 06:42:19;;;;;;;15.77;8.43;;;12.00;99.90;;;;;;5113482;28;20196;-69
2022/10/02 06:44:53;;;;;;;8.87;4.33;;;12.00;99.90;;;;;;5113260;28;20280;-70
2022/10/02 06:47:34;;;;;;;8.33;3.60;;;12.00;99.90;;;;;;5113118;28;20575;-69
2022/10/02 06:50:19;;;;;;;13.00;5.23;;;12.00;99.90;;;;;;5113400;28;20206;-69
2022/10/02 06:52:56;;;;;;;7.90;3.93;;;12.00;99.90;;;;;;5112519;28;20233;-69
2022/10/02 06:55:39;;;;;;;6.83;3.70;;;12.00;99.90;;;;;;5113124;28;20260;-70
2022/10/02 06:58:32;;;;;;;10.43;3.50;;;12.00;99.90;;;;;;5113358;28;20260;-70
2022/10/02 07:01:08;;;;;;;11.00;3.00;;;12.00;99.90;;;;;;5113127;28;20199;-69
2022/10/02 07:03:59;;;;;;;7.40;3.30;;;12.00;99.90;;;;;;5112923;28;20593;-69
2022/10/02 07:06:38;;;;;;;8.73;3.40;;;12.00;99.90;;;;;;5113007;28;20649;-69
2022/10/02 07:09:38;;;;;;;10.40;3.43;;;11.90;99.90;;;;;;5113298;28;20708;-69
2022/10/02 07:12:17;;;;;;;9.87;3.40;;;11.90;99.90;;;;;;5112929;28;20199;-70
2022/10/02 07:15:02;;;;;;;10.23;3.37;;;11.90;99.90;;;;;;5112399;28;20195;-70
2022/10/02 07:17:48;;;;;;;11.23;3.63;;;11.90;99.90;;;;;;5116673;28;20195;-69
2022/10/02 07:20:25;;;;;;;7.07;3.10;;;11.90;99.90;;;;;;5116927;28;20195;-70
2022/10/02 07:23:08;;;;;;;10.53;3.57;;;11.90;99.90;;;;;;5116631;28;20234;-69
2022/10/02 07:26:03;;;;;;;5.97;3.23;;;11.90;99.90;;;;;;5117126;28;20223;-69
2022/10/02 07:28:39;;;;;;;8.20;3.20;;;11.90;99.90;;;;;;5116871;28;20200;-69
2022/10/02 07:31:17;;;;;;;10.53;3.40;;;11.90;99.90;;;;;;5115731;28;20755;-70
2022/10/02 07:33:57;;;;;;;8.43;3.40;;;11.80;99.90;;;;;;5114268;28;20268;-70
2022/10/02 07:36:31;;;;;;;10.77;3.50;;;11.80;99.90;;;;;;5114108;28;20200;-70
2022/10/02 07:39:10;;;;;;;7.00;2.93;;;11.70;99.90;;;;;;5114144;28;20260;-70
2022/10/02 07:42:00;;;;;;;12.17;3.57;;;11.70;99.90;;;;;;5114061;28;20200;-70
2022/10/02 07:44:44;;;;;;;5.87;3.07;;;11.60;99.90;;;;;;5113698;28;20579;-70
2022/10/02 07:47:22;;;;;;;12.10;3.50;;;11.60;99.90;;;;;;5113971;28;20207;-70
2022/10/02 07:49:55;;;;;;;7.27;3.30;;;11.50;99.90;;;;;;5113876;28;20674;-70
2022/10/02 07:52:29;;;;;;;8.43;3.40;;;11.50;99.90;;;;;;5113821;28;20604;-70
2022/10/02 07:55:08;;;;;;;7.53;3.23;;;11.50;99.90;;;;;;5113571;28;20212;-70
2022/10/02 07:57:42;;;;;;;8.73;3.40;;;11.40;99.90;;;;;;5101501;28;20200;-70
2022/10/02 08:00:14;;;;;;;10.95;4.00;;;11.40;99.90;;;;;;5097541;28;20434;-71
2022/10/02 08:02:48;;;;;;;8.13;3.73;;;11.40;99.90;;;;;;5095790;28;20732;-71
2022/10/02 08:05:19;;;;;;;11.30;4.07;;;11.40;99.90;;;;;;5095491;28;20691;-70
2022/10/02 08:07:49;;;;;;;13.60;4.17;;;11.40;99.90;;;;;;5095668;28;20207;-70
2022/10/02 08:10:20;;;;;;;11.30;3.43;;;11.40;99.90;;;;;;5095575;28;20200;-71
2022/10/02 08:12:52;;;;;;;12.27;3.57;;;11.50;99.90;;;;;;5100624;28;20188;-71
2022/10/02 08:15:22;;;;;;;12.13;4.00;;;11.40;99.90;;;;;;5115602;28;20528;-70
2022/10/02 08:17:52;;;;;;;9.00;3.50;;;11.40;99.90;;;;;;5115949;28;20206;-71
2022/10/02 08:20:27;;;;;;;8.67;3.43;;;11.50;99.90;;;;;;5115812;28;20219;-71
2022/10/02 08:23:00;;;;;;;11.23;4.40;;;11.60;99.90;;;;;;5115443;28;20318;-70
2022/10/02 08:25:34;;;;;;;11.17;4.27;;;11.60;99.90;;;;;;5115943;28;20709;-70
2022/10/02 08:28:05;;;;;;;5.80;3.20;;;11.70;99.90;;;;;;5114911;28;20669;-70
2022/10/02 08:30:33;;;;;;;9.50;3.70;;;11.70;99.90;;;;;;5115841;28;20196;-70
2022/10/02 08:33:00;;;;;;;12.07;3.97;;;11.80;99.90;;;;;;5115794;28;20200;-70
2022/10/02 08:35:35;;;;;;;8.93;3.47;;;11.80;99.90;;;;;;5115622;28;20255;-71
2022/10/02 08:38:16;;;;;;;8.37;3.60;;;11.90;99.90;;;;;;5115683;28;20199;-70
2022/10/02 08:41:17;;;;;;;7.40;3.57;;;11.90;99.90;;;;;;5115683;28;20256;-70
2022/10/02 08:44:24;;;;;;;9.00;3.73;;;12.00;99.90;;;;;;5115994;28;20230;-70
2022/10/02 08:47:47;;;;;;;9.60;3.90;;;12.00;99.90;;;;;;5112194;28;20207;-70
2022/10/02 08:50:49;;;;;;;7.57;3.67;;;12.10;99.90;;;;;;5115355;28;20206;-71
2022/10/02 08:53:58;;;;;;;8.60;3.63;;;12.20;99.90;;;;;;5115351;28;20191;-70
2022/10/02 08:56:35;;;;;;;5.47;3.13;;;12.10;99.90;;;;;;5115215;28;20199;-70
2022/10/02 08:59:53;;;;;;;11.17;4.00;;;12.10;99.90;;;;;;5115462;28;20199;-70
2022/10/02 09:03:09;;;;;;;8.33;3.50;;;12.20;99.90;;;;;;5115122;28;20202;-71
2022/10/02 09:06:09;;;;;;;7.30;3.87;;;12.20;99.90;;;;;;5115009;28;20344;-70
2022/10/02 09:09:28;;;;;;;8.03;3.60;;;12.20;99.90;;;;;;5114985;28;20245;-70
2022/10/02 09:12:40;;;;;;;7.17;3.03;;;12.20;99.90;;;;;;5115068;28;20555;-70
2022/10/02 09:15:15;;;;;;;7.63;3.53;;;12.30;99.90;;;;;;5114960;28;20643;-70
2022/10/02 09:17:48;;;;;;;6.50;3.10;;;12.30;99.90;;;;;;5114660;28;20234;-70
2022/10/02 09:20:47;;;;;;;6.13;3.30;;;12.20;99.90;;;;;;5114789;28;20199;-70
2022/10/02 09:23:51;;;;;;;6.97;2.80;;;12.30;99.90;;;;;;5079771;28;20617;-71
2022/10/02 09:26:23;;;;;;;5.70;3.70;;;12.20;99.90;;;;;;5114626;28;20282;-70
2022/10/02 09:29:39;;;;;;;7.53;3.90;;;12.20;99.90;;;;;;5114576;28;20253;-70
2022/10/02 09:32:42;;;;;;;7.90;5.03;;;12.50;99.90;;;;;;5114551;28;20225;-70
2022/10/02 09:35:54;;;;;;;9.67;4.47;;;12.50;99.90;;;;;;5114472;28;20195;-71
2022/10/02 09:38:54;;;;;;;5.87;3.97;;;12.50;99.90;;;;;;5114050;28;20203;-70
2022/10/02 09:41:49;;;;;;;12.03;7.47;;;12.40;99.90;;;;;;5114344;28;20207;-70
2022/10/02 09:44:55;;;;;;;7.77;5.03;;;12.50;99.90;;;;;;5114111;28;20310;-70
2022/10/02 09:47:45;;;;;;;20.00;12.07;;;12.40;99.90;;;;;;5114254;28;20282;-70
2022/10/02 09:50:37;;;;;;;7.27;3.83;;;12.50;99.90;;;;;;5114199;28;20240;-70
2022/10/02 09:53:32;;;;;;;6.83;2.97;;;12.50;99.90;;;;;;5113949;28;20210;-70
2022/10/02 09:56:37;;;;;;;11.57;7.37;;;12.60;99.90;;;;;;5114055;28;20196;-70
2022/10/02 09:59:48;;;;;;;8.60;5.43;;;12.50;99.90;;;;;;5113873;28;20253;-70
2022/10/02 10:03:01;;;;;;;4.77;2.80;;;12.70;99.90;;;;;;5087882;28;20536;-70
2022/10/02 10:06:09;;;;;;;4.70;3.90;;;12.70;99.90;;;;;;5113630;28;20605;-70
2022/10/02 10:09:06;;;;;;;7.63;5.53;;;12.50;99.90;;;;;;5113837;28;20248;-69
2022/10/02 10:12:01;;;;;;;9.37;4.43;;;12.60;99.90;;;;;;5113649;28;20199;-69
2022/10/02 10:14:56;;;;;;;4.83;2.80;;;12.70;99.90;;;;;;5113554;28;20200;-69
2022/10/02 10:17:58;;;;;;;4.90;3.17;;;12.60;99.90;;;;;;5113745;28;20204;-69
2022/10/02 10:20:53;;;;;;;3.00;2.40;;;12.80;99.90;;;;;;5113820;28;20202;-70
2022/10/02 10:23:42;;;;;;;7.87;6.80;;;12.90;99.90;;;;;;5105632;28;20314;-69
2022/10/02 10:26:42;;;;;;;6.30;4.30;;;12.80;99.90;;;;;;5110015;28;20195;-69
2022/10/02 10:29:53;;;;;;;4.43;3.80;;;12.70;99.90;;;;;;5092447;28;20604;-69
2022/10/02 10:32:58;;;;;;;3.53;3.10;;;12.50;99.90;;;;;;5066052;28;20195;-69
2022/10/02 10:35:52;;;;;;;6.20;2.70;;;12.30;99.90;;;;;;5111862;28;20199;-69
2022/10/02 10:38:37;;;;;;;4.43;2.90;;;12.30;99.90;;;;;;5105399;28;20206;-69
2022/10/02 10:41:35;;;;;;;3.10;2.63;;;12.40;99.90;;;;;;5113233;28;20206;-69
2022/10/02 10:44:24;;;;;;;3.63;2.60;;;12.40;99.90;;;;;;5113286;28;20310;-69
2022/10/02 10:47:17;;;;;;;5.90;3.80;;;12.20;99.90;;;;;;5113122;28;20677;-69
2022/10/02 10:50:08;;;;;;;7.00;5.07;;;12.20;99.90;;;;;;5112644;28;20705;-70
2022/10/02 10:53:07;;;;;;;3.73;3.23;;;12.20;99.90;;;;;;5099481;28;20563;-69
2022/10/02 10:56:01;;;;;;;4.83;3.47;;;12.10;99.90;;;;;;5085338;28;20264;-69
2022/10/02 10:58:45;;;;;;;7.10;4.93;;;12.10;99.90;;;;;;5113088;28;20195;-69
2022/10/02 11:01:17;;;;;;;5.07;3.80;;;12.10;99.90;;;;;;5112925;28;20196;-69
2022/10/02 11:04:13;;;;;;;3.33;2.80;;;12.20;99.90;;;;;;5112960;28;20222;-69
2022/10/02 11:07:06;;;;;;;5.90;3.60;;;12.20;99.90;;;;;;5113119;28;20200;-69
2022/10/02 11:10:00;;;;;;;6.17;4.33;;;12.40;99.90;;;;;;5113044;28;20655;-70
2022/10/02 11:12:56;;;;;;;6.00;2.70;;;12.60;99.90;;;;;;5113122;28;20199;-69
2022/10/02 11:15:55;;;;;;;4.03;3.13;;;12.30;99.90;;;;;;5111440;28;20199;-70
2022/10/02 11:18:37;;;;;;;3.07;1.70;;;12.20;99.90;;;;;;5106236;28;20196;-69
2022/10/02 11:21:50;;;;;;;2.47;2.27;;;12.00;99.90;;;;;;5112809;28;20559;-69
2022/10/02 11:24:49;;;;;;;2.20;1.73;;;12.10;99.90;;;;;;5088599;28;20288;-69
2022/10/02 11:27:32;;;;;;;9.17;7.77;;;12.00;99.90;;;;;;5113003;28;20202;-69
2022/10/02 11:30:21;;;;;;;5.80;3.33;;;12.10;99.90;;;;;;5112961;28;20287;-70
2022/10/02 11:33:24;;;;;;;9.83;5.70;;;12.10;99.90;;;;;;5112616;28;20202;-69
2022/10/02 11:36:15;;;;;;;13.03;11.03;;;12.00;99.90;;;;;;5076385;28;20210;-70
2022/10/02 11:39:16;;;;;;;7.30;5.63;;;12.00;99.90;;;;;;5100693;28;20252;-70
2022/10/02 11:42:10;;;;;;;3.33;2.57;;;12.00;99.90;;;;;;5068961;28;20298;-69
2022/10/02 11:44:57;;;;;;;6.13;4.20;;;11.80;99.90;;;;;;5112502;28;20556;-69
2022/10/02 11:47:57;;;;;;;4.70;4.00;;;11.80;99.90;;;;;;5112617;28;20290;-69
2022/10/02 11:50:45;;;;;;;13.57;8.57;;;11.80;99.90;;;;;;5113418;28;20245;-68
2022/10/02 11:53:33;;;;;;;14.60;10.60;;;11.80;99.90;;;;;;5112609;28;20532;-69
2022/10/02 11:56:14;;;;;;;2.97;2.67;;;11.80;99.90;;;;;;5112589;28;20204;-69
2022/10/02 11:58:54;;;;;;;5.83;4.23;;;11.80;99.90;;;;;;5112734;28;20200;-69
2022/10/02 12:01:31;;;;;;;3.83;2.77;;;11.60;99.90;;;;;;5112785;28;20265;-68
2022/10/02 12:04:10;;;;;;;3.83;3.33;;;11.60;99.90;;;;;;5116065;28;20272;-69
2022/10/02 12:06:56;;;;;;;12.07;7.83;;;11.60;99.90;;;;;;5116515;28;20211;-69
2022/10/02 12:09:32;;;;;;;13.87;8.17;;;11.70;99.90;;;;;;5116131;28;20204;-71
2022/10/02 12:12:11;;;;;;;10.27;6.33;;;11.80;99.90;;;;;;5116083;28;20202;-70
2022/10/02 12:14:45;;;;;;;5.77;4.50;;;11.80;99.90;;;;;;5115909;28;20227;-69
2022/10/02 12:17:41;;;;;;;3.00;2.40;;;11.90;99.90;;;;;;5116392;28;20567;-69
2022/10/02 12:29:00;;;;;;;7.63;6.47;;;12.00;99.90;;;;;;5115958;28;20313;-70
2022/10/02 12:31:33;;;;;;;7.80;5.77;;;12.20;99.90;;;;;;5115636;28;20719;-70
2022/10/02 12:34:09;;;;;;;4.73;3.50;;;12.10;99.90;;;;;;5115734;28;20643;-70
2022/10/02 12:36:47;;;;;;;3.97;3.20;;;12.00;99.90;;;;;;5115587;28;20203;-70
2022/10/02 12:39:24;;;;;;;10.43;6.40;;;11.90;99.90;;;;;;5115517;28;20195;-69
2022/10/02 12:42:03;;;;;;;3.90;3.00;;;11.80;99.90;;;;;;5115369;28;20211;-70
2022/10/02 12:44:57;;;;;;;1.93;1.73;;;12.10;99.90;;;;;;5115382;28;20203;-69
2022/10/02 12:47:37;;;;;;;2.33;2.10;;;11.90;99.90;;;;;;5112689;28;20646;-69
2022/10/02 12:50:20;;;;;;;3.53;2.47;;;11.90;99.90;;;;;;5115340;28;20207;-69
2022/10/02 12:53:28;;;;;;;4.30;3.03;;;11.80;99.90;;;;;;5115486;28;20200;-69
2022/10/02 12:56:28;;;;;;;5.97;2.50;;;11.80;99.90;;;;;;5115310;28;20200;-69
2022/10/02 12:59:04;;;;;;;3.53;2.37;;;11.80;99.90;;;;;;5088351;27;20248;-69
2022/10/02 13:02:04;;;;;;;2.50;2.03;;;11.80;99.90;;;;;;5115143;28;20200;-69
2022/10/02 13:05:15;;;;;;;4.03;2.60;;;11.90;99.90;;;;;;5081774;28;20203;-69
2022/10/02 13:08:17;;;;;;;2.73;2.20;;;11.80;99.90;;;;;;5115221;28;20200;-70
2022/10/02 13:10:49;;;;;;;2.80;2.50;;;11.80;99.90;;;;;;5114795;28;20206;-70
2022/10/02 13:13:41;;;;;;;5.60;2.40;;;11.80;99.90;;;;;;5114578;28;20200;-70
2022/10/02 13:16:19;;;;;;;2.03;1.53;;;11.80;99.90;;;;;;5114755;28;20256;-70
2022/10/02 13:19:07;;;;;;;2.30;2.00;;;11.80;99.90;;;;;;5114527;28;20195;-69
2022/10/02 13:21:46;;;;;;;1.93;1.70;;;11.80;99.90;;;;;;5114785;28;20207;-70
2022/10/02 13:24:36;;;;;;;3.23;2.07;;;12.00;99.90;;;;;;5114619;28;20198;-69
2022/10/02 13:27:15;;;;;;;2.67;1.80;;;12.10;99.90;;;;;;5114558;28;20202;-70
2022/10/02 13:29:51;;;;;;;2.00;1.80;;;12.10;99.90;;;;;;5114331;28;20196;-69
2022/10/02 13:32:42;;;;;;;2.63;2.33;;;12.20;99.90;;;;;;5114396;28;20195;-71
2022/10/02 13:35:27;;;;;;;2.23;1.70;;;12.20;99.90;;;;;;5114239;28;20317;-71
2022/10/02 13:38:05;;;;;;;2.10;1.90;;;12.20;99.90;;;;;;5111778;28;20269;-71
2022/10/02 13:40:45;;;;;;;1.80;1.70;;;12.40;99.90;;;;;;5111361;28;20541;-70
2022/10/02 13:43:43;;;;;;;1.50;1.40;;;12.30;99.90;;;;;;5111510;28;20199;-71
2022/10/02 13:46:25;;;;;;;1.27;1.10;;;12.10;99.90;;;;;;5111592;28;20227;-71
2022/10/02 13:49:03;;;;;;;1.77;0.90;;;12.10;99.90;;;;;;5111362;28;20199;-70
2022/10/02 13:51:36;;;;;;;2.53;1.37;;;12.10;99.90;;;;;;5111491;28;20199;-70
2022/10/02 13:54:19;;;;;;;4.57;1.37;;;12.20;99.90;;;;;;5111278;28;20268;-71
2022/10/02 13:56:52;;;;;;;3.60;1.60;;;12.30;99.90;;;;;;5111268;28;20200;-70
2022/10/02 13:59:44;;;;;;;1.77;1.20;;;12.20;99.90;;;;;;5111237;28;20547;-70
2022/10/02 14:02:24;;;;;;;1.10;1.00;;;12.10;99.90;;;;;;5111246;28;20704;-69
2022/10/02 14:04:59;;;;;;;2.83;2.10;;;12.10;99.90;;;;;;5111002;28;20711;-70